Time;durP1;ratioP1;P1;durP2;ratioP2;P2;SDS_P1;SDS_P2;PMS_P1;PMS_P2;Temp;Humidity;BMP_temperature;BMP_pressure;BME280_temperature;BME280_humidity;BME280_pressure;Samples;Min_cycle;Max_cycle;Signal;HPM_P1;HPM_P2
2023/12/06 00:00:00;;;;;;;40.70;24.63;;;0.90;99.90;;;;;;5072414;28;20465;-68
2023/12/06 00:02:27;;;;;;;41.08;25.70;;;0.90;99.90;;;;;;5073679;28;20048;-68
2023/12/06 00:04:55;;;;;;;39.00;24.27;;;1.00;99.90;;;;;;5072434;28;20040;-68
2023/12/06 00:07:22;;;;;;;40.30;24.48;;;1.00;99.90;;;;;;5074320;28;20097;-69
2023/12/06 00:09:49;;;;;;;43.88;24.85;;;1.00;99.90;;;;;;5073868;28;20056;-70
2023/12/06 00:12:16;;;;;;;35.60;23.35;;;1.00;99.90;;;;;;5074010;28;20105;-69
2023/12/06 00:14:43;;;;;;;36.60;24.05;;;1.00;99.90;;;;;;5074307;28;20054;-69
2023/12/06 00:17:10;;;;;;;39.15;23.55;;;1.00;99.90;;;;;;5073446;28;20048;-69
2023/12/06 00:19:37;;;;;;;40.03;24.23;;;1.00;99.90;;;;;;5074140;28;20054;-69
2023/12/06 00:22:05;;;;;;;40.70;23.83;;;1.00;99.90;;;;;;5073468;28;20052;-69
2023/12/06 00:24:32;;;;;;;42.40;25.08;;;1.10;99.90;;;;;;5074636;28;20446;-68
2023/12/06 00:26:59;;;;;;;47.08;26.73;;;1.00;99.90;;;;;;5074216;28;20507;-68
2023/12/06 00:29:25;;;;;;;39.78;24.65;;;1.00;99.90;;;;;;5073941;28;20097;-70
2023/12/06 00:31:52;;;;;;;38.67;23.50;;;1.00;99.90;;;;;;5073986;28;20052;-70
2023/12/06 00:34:19;;;;;;;44.83;26.55;;;1.00;99.90;;;;;;5071701;28;20048;-69
2023/12/06 00:36:47;;;;;;;42.03;24.55;;;1.30;99.90;;;;;;5073591;28;20104;-70
2023/12/06 00:39:16;;;;;;;43.70;25.73;;;1.00;99.90;;;;;;5072386;28;20470;-69
2023/12/06 00:41:43;;;;;;;43.70;26.38;;;1.00;99.90;;;;;;5073467;28;20043;-68
2023/12/06 00:44:10;;;;;;;39.05;24.10;;;1.00;99.90;;;;;;5073154;28;20097;-70
2023/12/06 00:46:37;;;;;;;44.38;25.63;;;1.10;99.90;;;;;;5073904;28;20040;-69
2023/12/06 00:49:04;;;;;;;43.22;25.80;;;1.00;99.90;;;;;;5074072;28;20135;-69
2023/12/06 00:51:31;;;;;;;43.72;26.58;;;1.00;99.90;;;;;;5073417;28;20496;-68
2023/12/06 00:53:57;;;;;;;39.83;23.27;;;1.00;99.90;;;;;;5074067;28;20048;-69
2023/12/06 00:56:26;;;;;;;41.05;26.33;;;0.90;99.90;;;;;;5073378;28;20092;-68
2023/12/06 00:58:52;;;;;;;39.80;25.25;;;1.00;99.90;;;;;;5073434;28;20052;-68
2023/12/06 01:01:19;;;;;;;42.83;25.35;;;1.20;99.90;;;;;;5071904;28;20044;-68
2023/12/06 01:03:46;;;;;;;38.63;23.30;;;0.90;99.90;;;;;;5073456;28;20094;-68
2023/12/06 01:06:13;;;;;;;42.20;25.38;;;1.00;99.90;;;;;;5073414;28;20089;-68
2023/12/06 01:08:40;;;;;;;38.20;24.55;;;1.70;99.90;;;;;;5073815;28;20060;-68
2023/12/06 01:11:07;;;;;;;37.08;23.02;;;1.00;99.90;;;;;;5073690;28;20048;-68
2023/12/06 01:13:35;;;;;;;39.95;24.80;;;1.20;99.90;;;;;;5073077;28;20487;-68
2023/12/06 01:16:02;;;;;;;35.63;23.98;;;1.00;99.90;;;;;;5073362;28;20044;-69
2023/12/06 01:18:29;;;;;;;38.08;24.35;;;1.00;99.90;;;;;;5071035;28;20056;-69
2023/12/06 01:20:56;;;;;;;34.50;22.60;;;1.10;99.90;;;;;;5072593;28;20508;-69
2023/12/06 01:23:23;;;;;;;32.03;21.73;;;1.10;99.90;;;;;;5091233;28;20047;-69
2023/12/06 01:25:50;;;;;;;38.67;23.05;;;1.10;99.90;;;;;;5070351;28;20545;-68
2023/12/06 01:28:16;;;;;;;35.05;21.48;;;1.10;99.90;;;;;;5073618;28;20051;-69
2023/12/06 01:30:45;;;;;;;34.80;20.40;;;1.20;99.90;;;;;;5073507;28;20060;-69
2023/12/06 01:33:12;;;;;;;34.33;21.67;;;1.20;99.90;;;;;;5073834;28;20135;-69
2023/12/06 01:35:39;;;;;;;33.53;21.17;;;1.20;99.90;;;;;;5077079;28;20123;-69
2023/12/06 01:38:05;;;;;;;33.65;21.50;;;1.20;99.90;;;;;;5076836;28;20499;-68
2023/12/06 01:40:35;;;;;;;33.70;20.77;;;1.20;99.90;;;;;;5076539;28;20117;-69
2023/12/06 01:43:02;;;;;;;35.50;22.77;;;1.20;99.90;;;;;;5077041;28;20086;-68
2023/12/06 01:45:29;;;;;;;32.20;19.88;;;1.20;99.90;;;;;;5077177;28;20488;-68
2023/12/06 01:47:58;;;;;;;32.03;19.63;;;1.30;99.90;;;;;;5076460;28;20051;-69
2023/12/06 01:50:26;;;;;;;33.70;19.67;;;1.30;99.90;;;;;;5077076;28;20101;-68
2023/12/06 01:52:56;;;;;;;29.58;19.30;;;1.30;99.90;;;;;;5074395;28;20055;-69
2023/12/06 01:55:23;;;;;;;27.55;18.83;;;1.30;99.90;;;;;;5076337;28;20032;-69
2023/12/06 01:57:50;;;;;;;24.27;17.20;;;1.30;99.90;;;;;;5076907;28;20381;-69
2023/12/06 02:00:18;;;;;;;30.60;19.17;;;1.30;99.90;;;;;;5076905;28;20093;-69
2023/12/06 02:02:46;;;;;;;28.90;18.40;;;1.30;99.90;;;;;;5076304;28;20120;-69
2023/12/06 02:05:14;;;;;;;28.40;17.92;;;1.30;99.90;;;;;;5076719;28;20039;-69
2023/12/06 02:07:42;;;;;;;23.42;16.77;;;1.30;99.90;;;;;;5076325;28;20048;-68
2023/12/06 02:10:10;;;;;;;26.08;17.80;;;1.30;99.90;;;;;;5076098;28;20060;-69
2023/12/06 02:12:37;;;;;;;25.67;17.33;;;1.30;99.90;;;;;;5076430;28;20087;-69
2023/12/06 02:15:05;;;;;;;25.45;17.65;;;1.30;99.90;;;;;;5075993;28;20051;-69
2023/12/06 02:17:32;;;;;;;25.95;17.13;;;1.40;99.90;;;;;;5073660;28;20516;-69
2023/12/06 02:20:01;;;;;;;27.25;17.23;;;1.40;99.90;;;;;;5076272;28;20052;-69
2023/12/06 02:22:30;;;;;;;26.88;16.83;;;1.40;99.90;;;;;;5075878;28;20056;-69
2023/12/06 02:25:00;;;;;;;24.05;16.73;;;1.40;99.90;;;;;;5073906;28;20052;-70
2023/12/06 02:27:28;;;;;;;26.55;17.27;;;1.40;99.90;;;;;;5076307;28;20108;-70
2023/12/06 02:29:55;;;;;;;23.52;16.13;;;1.40;99.90;;;;;;5075521;28;20093;-69
2023/12/06 02:32:22;;;;;;;23.92;16.40;;;1.40;99.90;;;;;;5073658;28;20113;-69
2023/12/06 02:34:51;;;;;;;22.77;15.95;;;1.40;99.90;;;;;;5075785;28;20043;-69
2023/12/06 02:37:21;;;;;;;20.20;14.50;;;1.40;99.90;;;;;;5072983;28;20549;-69
2023/12/06 02:39:49;;;;;;;22.17;14.97;;;1.40;99.90;;;;;;5074870;28;20063;-69
2023/12/06 02:42:16;;;;;;;23.83;15.95;;;1.40;99.90;;;;;;5074995;28;20286;-70
2023/12/06 02:44:44;;;;;;;22.52;16.00;;;1.50;99.90;;;;;;5072562;28;20044;-70
2023/12/06 02:47:12;;;;;;;22.73;14.55;;;1.40;99.90;;;;;;5075622;28;20052;-69
2023/12/06 02:49:39;;;;;;;21.90;14.82;;;1.50;99.90;;;;;;5075609;28;20048;-69
2023/12/06 02:52:07;;;;;;;20.85;14.63;;;1.40;99.90;;;;;;5075214;28;20044;-70
2023/12/06 02:54:33;;;;;;;21.35;15.10;;;1.50;99.90;;;;;;5075588;28;20097;-69
2023/12/06 02:57:00;;;;;;;18.52;14.20;;;1.50;99.90;;;;;;5075453;28;20044;-69
2023/12/06 02:59:27;;;;;;;20.83;14.35;;;1.50;99.90;;;;;;5074779;28;20055;-68
2023/12/06 03:01:55;;;;;;;21.52;13.90;;;1.50;99.90;;;;;;5072970;28;20040;-68
2023/12/06 03:04:21;;;;;;;20.02;13.68;;;1.50;99.90;;;;;;5074735;28;20048;-68
2023/12/06 03:06:48;;;;;;;20.48;13.95;;;1.50;99.90;;;;;;5075592;28;20113;-68
2023/12/06 03:09:15;;;;;;;19.42;12.90;;;1.40;99.90;;;;;;5075315;28;20052;-68
2023/12/06 03:11:42;;;;;;;18.35;12.48;;;1.50;99.90;;;;;;5074583;28;20052;-68
2023/12/06 03:14:09;;;;;;;17.48;13.45;;;1.40;99.90;;;;;;5073051;28;20446;-68
2023/12/06 03:16:36;;;;;;;19.25;12.70;;;1.40;99.90;;;;;;5075095;28;20044;-68
2023/12/06 03:19:04;;;;;;;17.40;12.75;;;1.40;99.90;;;;;;5072343;28;20101;-68
2023/12/06 03:21:31;;;;;;;16.92;12.50;;;1.60;99.90;;;;;;5075035;28;20048;-69
2023/12/06 03:23:58;;;;;;;17.80;11.95;;;1.40;99.90;;;;;;5075187;28;20051;-69
2023/12/06 03:26:25;;;;;;;15.10;11.45;;;1.40;99.90;;;;;;5074477;28;20489;-69
2023/12/06 03:28:52;;;;;;;15.20;10.70;;;1.40;99.90;;;;;;5074940;28;20044;-69
2023/12/06 03:31:19;;;;;;;15.07;11.38;;;1.40;99.90;;;;;;5073112;28;20446;-69
2023/12/06 03:33:46;;;;;;;15.23;10.88;;;1.40;99.90;;;;;;5074171;28;20496;-69
2023/12/06 03:36:14;;;;;;;16.35;11.70;;;1.40;99.90;;;;;;5074859;28;20491;-70
2023/12/06 03:38:41;;;;;;;15.15;11.18;;;1.40;99.90;;;;;;5074778;28;20112;-69
2023/12/06 03:41:09;;;;;;;14.00;10.68;;;4.30;99.90;;;;;;5074305;28;20381;-69
2023/12/06 03:43:36;;;;;;;16.85;11.13;;;1.50;99.90;;;;;;5074911;28;20101;-70
2023/12/06 03:46:03;;;;;;;16.80;11.38;;;1.50;99.90;;;;;;5074954;28;20108;-69
2023/12/06 03:48:30;;;;;;;15.98;11.77;;;1.50;99.90;;;;;;5071414;28;20131;-69
2023/12/06 03:50:57;;;;;;;16.63;12.15;;;1.50;99.90;;;;;;5073080;28;20128;-71
2023/12/06 03:53:25;;;;;;;17.55;12.13;;;1.50;99.90;;;;;;5070245;28;20132;-72
2023/12/06 03:55:52;;;;;;;16.75;12.65;;;1.60;99.90;;;;;;5073733;28;20071;-71
2023/12/06 03:58:19;;;;;;;18.35;12.80;;;1.60;99.90;;;;;;5070900;28;20044;-71
2023/12/06 04:00:46;;;;;;;15.43;11.75;;;1.60;99.90;;;;;;5073354;28;20382;-73
2023/12/06 04:03:13;;;;;;;16.52;12.60;;;1.60;99.90;;;;;;5072140;28;20056;-72
2023/12/06 04:05:42;;;;;;;17.15;11.45;;;1.60;99.90;;;;;;5073115;28;20082;-72
2023/12/06 04:08:09;;;;;;;14.18;11.13;;;1.60;99.90;;;;;;5071955;28;20472;-71
2023/12/06 04:10:37;;;;;;;17.02;10.98;;;1.60;99.90;;;;;;5071508;28;20044;-73
2023/12/06 04:13:05;;;;;;;16.80;10.93;;;1.60;99.90;;;;;;5072868;28;20052;-72
2023/12/06 04:15:32;;;;;;;17.23;11.73;;;1.70;99.90;;;;;;5073156;28;20079;-72
2023/12/06 04:17:58;;;;;;;16.63;10.98;;;1.60;99.90;;;;;;5073265;28;20124;-71
2023/12/06 04:20:25;;;;;;;14.10;10.30;;;1.60;99.90;;;;;;5073410;28;20044;-71
2023/12/06 04:22:52;;;;;;;14.15;10.98;;;1.60;99.90;;;;;;5072804;28;20190;-71
2023/12/06 04:25:20;;;;;;;14.55;10.43;;;1.60;99.90;;;;;;5073030;28;20089;-72
2023/12/06 04:27:48;;;;;;;14.77;11.27;;;1.70;99.90;;;;;;5073329;28;20044;-70
2023/12/06 04:30:16;;;;;;;13.45;10.02;;;1.60;99.90;;;;;;5071315;28;20492;-70
2023/12/06 04:32:43;;;;;;;13.65;9.93;;;1.60;99.90;;;;;;5073238;28;20044;-72
2023/12/06 04:35:11;;;;;;;15.75;11.15;;;1.70;99.90;;;;;;5073310;28;20105;-71
2023/12/06 04:37:38;;;;;;;15.15;10.60;;;1.70;99.90;;;;;;5072288;28;20048;-72
2023/12/06 04:40:07;;;;;;;15.20;11.13;;;1.70;99.90;;;;;;5072911;28;20048;-72
2023/12/06 04:42:34;;;;;;;15.43;10.35;;;1.70;99.90;;;;;;5072943;28;20044;-72
2023/12/06 04:45:02;;;;;;;15.90;10.98;;;1.70;99.90;;;;;;5072255;28;20044;-73
2023/12/06 04:47:29;;;;;;;17.35;11.07;;;1.70;99.90;;;;;;5073243;28;20123;-72
2023/12/06 04:49:55;;;;;;;21.40;13.00;;;1.70;99.90;;;;;;5090676;28;20462;-72
2023/12/06 04:52:24;;;;;;;16.30;11.98;;;1.70;99.90;;;;;;5073317;28;20577;-71
2023/12/06 04:54:51;;;;;;;14.88;11.35;;;1.70;99.90;;;;;;5073127;28;20048;-71
2023/12/06 04:57:19;;;;;;;17.08;12.80;;;1.70;99.90;;;;;;5089390;28;20044;-71
2023/12/06 04:59:45;;;;;;;15.98;11.93;;;1.70;99.90;;;;;;5072901;28;20040;-71
2023/12/06 05:02:14;;;;;;;15.77;11.45;;;1.70;99.90;;;;;;5070967;28;20117;-72
2023/12/06 05:04:41;;;;;;;17.02;11.77;;;1.70;99.90;;;;;;5071383;28;20121;-71
2023/12/06 05:07:07;;;;;;;15.25;10.98;;;1.70;99.90;;;;;;5072953;28;20094;-71
2023/12/06 05:09:35;;;;;;;14.57;11.20;;;1.70;99.90;;;;;;5075937;28;20081;-71
2023/12/06 05:12:01;;;;;;;15.20;11.95;;;1.90;99.90;;;;;;5076478;28;20385;-71
2023/12/06 05:14:28;;;;;;;16.35;11.27;;;1.70;99.90;;;;;;5076343;28;20052;-70
2023/12/06 05:16:55;;;;;;;16.38;11.20;;;1.70;99.90;;;;;;5076872;28;20048;-71
2023/12/06 05:19:23;;;;;;;15.68;11.77;;;1.80;99.90;;;;;;5075638;28;20113;-72
2023/12/06 05:21:53;;;;;;;15.60;10.77;;;1.80;99.90;;;;;;5076923;28;20040;-72
2023/12/06 05:24:20;;;;;;;17.95;12.93;;;1.80;99.90;;;;;;5075282;28;20097;-74
2023/12/06 05:26:46;;;;;;;18.65;11.70;;;1.70;99.90;;;;;;5076194;28;20133;-72
2023/12/06 05:29:13;;;;;;;15.50;11.23;;;1.80;99.90;;;;;;5076594;28;20168;-71
2023/12/06 05:31:40;;;;;;;15.32;9.98;;;1.80;99.90;;;;;;5074284;28;20044;-72
2023/12/06 05:34:07;;;;;;;13.05;10.13;;;1.80;99.90;;;;;;5077016;28;20101;-71
2023/12/06 05:36:36;;;;;;;14.18;11.32;;;1.80;99.90;;;;;;5070511;28;20044;-71
2023/12/06 05:39:05;;;;;;;16.48;12.50;;;2.00;99.90;;;;;;5075869;28;20135;-71
2023/12/06 05:41:32;;;;;;;15.23;11.60;;;1.80;99.90;;;;;;5074849;28;20127;-72
2023/12/06 05:43:59;;;;;;;15.70;10.60;;;1.80;99.90;;;;;;5076199;28;20048;-71
2023/12/06 05:46:26;;;;;;;16.95;12.18;;;1.80;99.90;;;;;;5074021;28;20131;-70
2023/12/06 05:48:53;;;;;;;16.27;11.75;;;1.80;99.90;;;;;;5076428;28;20048;-71
2023/12/06 05:51:19;;;;;;;15.88;11.73;;;1.80;99.90;;;;;;5075971;28;20056;-71
2023/12/06 05:53:49;;;;;;;15.27;11.38;;;2.00;99.90;;;;;;5073524;28;20040;-71
2023/12/06 05:56:16;;;;;;;16.02;11.10;;;1.80;99.90;;;;;;5074977;28;20044;-72
2023/12/06 05:58:43;;;;;;;16.00;11.80;;;2.10;99.90;;;;;;5076425;28;20503;-70
2023/12/06 06:01:10;;;;;;;16.98;10.82;;;1.90;99.90;;;;;;5075229;28;20060;-70
2023/12/06 06:03:37;;;;;;;16.25;11.07;;;1.90;99.90;;;;;;5074224;28;20097;-73
2023/12/06 06:06:06;;;;;;;14.57;10.07;;;1.90;99.90;;;;;;5074610;28;20076;-72
2023/12/06 06:08:34;;;;;;;14.52;10.95;;;2.10;99.90;;;;;;5074644;28;20084;-71
2023/12/06 06:11:02;;;;;;;15.20;10.75;;;2.30;99.90;;;;;;5073051;28;20055;-72
2023/12/06 06:13:29;;;;;;;17.73;11.27;;;2.10;99.90;;;;;;5074487;28;20044;-72
2023/12/06 06:15:56;;;;;;;16.20;10.57;;;2.10;99.90;;;;;;5070554;28;20071;-72
2023/12/06 06:18:24;;;;;;;15.60;11.18;;;2.40;99.90;;;;;;5073245;28;20519;-72
2023/12/06 06:20:51;;;;;;;16.13;10.88;;;2.20;99.90;;;;;;5073330;28;20439;-72
2023/12/06 06:23:18;;;;;;;15.02;11.32;;;2.10;99.90;;;;;;5075152;28;20499;-72
2023/12/06 06:25:45;;;;;;;14.77;11.07;;;2.10;99.90;;;;;;5075914;28;20441;-72
2023/12/06 06:28:13;;;;;;;16.98;10.57;;;2.10;99.90;;;;;;5075881;28;20060;-72
2023/12/06 06:30:40;;;;;;;17.55;10.52;;;2.20;99.90;;;;;;5076256;28;20048;-72
2023/12/06 06:33:07;;;;;;;15.35;10.32;;;2.10;99.90;;;;;;5075606;28;20056;-72
2023/12/06 06:35:34;;;;;;;16.08;10.13;;;2.20;99.90;;;;;;5075293;28;20045;-71
2023/12/06 06:38:01;;;;;;;14.88;9.93;;;2.20;99.90;;;;;;5075684;28;20484;-71
2023/12/06 06:40:28;;;;;;;11.55;9.30;;;2.20;99.90;;;;;;5076017;28;20415;-72
2023/12/06 06:42:55;;;;;;;15.48;9.38;;;2.20;99.90;;;;;;5075410;28;20551;-72
2023/12/06 06:45:24;;;;;;;11.50;8.88;;;2.30;99.90;;;;;;5075667;28;20052;-71
2023/12/06 06:47:50;;;;;;;13.65;8.57;;;2.30;99.90;;;;;;5073311;28;20052;-71
2023/12/06 06:50:17;;;;;;;11.95;9.43;;;2.30;99.90;;;;;;5073656;28;20121;-72
2023/12/06 06:52:45;;;;;;;12.55;8.93;;;2.30;99.90;;;;;;5075114;28;20047;-71
2023/12/06 06:55:12;;;;;;;12.75;8.40;;;2.30;99.90;;;;;;5075197;28;20463;-71
2023/12/06 06:57:39;;;;;;;13.20;8.77;;;2.30;99.90;;;;;;5074565;28;20090;-71
2023/12/06 07:00:09;;;;;;;14.02;8.25;;;2.30;99.90;;;;;;5075254;28;20047;-72
2023/12/06 07:02:38;;;;;;;;;;;2.30;99.90;;;;;;5075733;28;20052;-71
2023/12/06 07:05:06;;;;;;;14.45;9.45;;;2.60;99.90;;;;;;5074982;28;19928;-72
2023/12/06 07:07:33;;;;;;;10.25;8.57;;;2.30;99.90;;;;;;5075225;28;20040;-72
2023/12/06 07:10:04;;;;;;;12.82;8.30;;;2.50;99.90;;;;;;5075586;28;20128;-72
2023/12/06 07:12:32;;;;;;;;;;;2.30;99.90;;;;;;5073884;28;20052;-72
2023/12/06 07:14:59;;;;;;;12.70;8.60;;;2.30;99.90;;;;;;5075166;28;19927;-73
2023/12/06 07:17:25;;;;;;;11.02;8.70;;;2.40;99.90;;;;;;5074809;28;20040;-72
2023/12/06 07:19:55;;;;;;;13.55;8.57;;;2.30;99.90;;;;;;5074440;28;20496;-73
2023/12/06 07:22:22;;;;;;;15.07;10.30;;;2.40;99.90;;;;;;5074851;28;20139;-72
2023/12/06 07:24:49;;;;;;;13.57;10.55;;;2.40;99.90;;;;;;5073836;28;20887;-72
2023/12/06 07:27:16;;;;;;;16.40;11.40;;;2.40;99.90;;;;;;5074961;28;20044;-71
2023/12/06 07:29:43;;;;;;;16.13;10.90;;;2.40;99.90;;;;;;5074859;28;20043;-73
2023/12/06 07:32:10;;;;;;;16.92;11.75;;;2.40;99.90;;;;;;5074276;28;20546;-72
2023/12/06 07:34:37;;;;;;;14.18;11.27;;;2.40;99.90;;;;;;5074775;28;20454;-71
2023/12/06 07:37:05;;;;;;;15.05;11.38;;;2.40;99.90;;;;;;5072449;28;20411;-70
2023/12/06 07:39:32;;;;;;;14.70;10.15;;;2.40;99.90;;;;;;5074294;28;20052;-71
2023/12/06 07:41:59;;;;;;;16.20;11.48;;;2.40;99.90;;;;;;5074790;28;20052;-71
2023/12/06 07:44:25;;;;;;;15.73;11.13;;;2.40;99.90;;;;;;5074652;28;20052;-72
2023/12/06 07:46:52;;;;;;;17.42;11.57;;;2.30;99.90;;;;;;5073744;28;20104;-72
2023/12/06 07:49:22;;;;;;;13.27;10.60;;;2.40;99.90;;;;;;5091076;28;20097;-72
2023/12/06 07:51:49;;;;;;;14.40;10.95;;;2.40;99.90;;;;;;5074342;28;20063;-72
2023/12/06 07:54:17;;;;;;;15.10;10.75;;;2.40;99.90;;;;;;5074051;28;20044;-72
2023/12/06 07:56:44;;;;;;;22.85;12.00;;;2.40;99.90;;;;;;5074399;28;20044;-71
2023/12/06 07:59:11;;;;;;;15.75;11.63;;;2.50;99.90;;;;;;5074339;28;20051;-72
2023/12/06 08:01:38;;;;;;;16.23;11.30;;;2.50;99.90;;;;;;5073898;28;20047;-72
2023/12/06 08:04:05;;;;;;;13.35;10.15;;;2.50;99.90;;;;;;5074360;28;20052;-72
2023/12/06 08:06:32;;;;;;;13.85;10.10;;;2.50;99.90;;;;;;5074382;28;20120;-72
2023/12/06 08:09:00;;;;;;;14.10;9.70;;;2.40;99.90;;;;;;5073333;28;20086;-72
2023/12/06 08:11:28;;;;;;;12.77;9.35;;;2.40;99.90;;;;;;5074309;28;20044;-72
2023/12/06 08:13:55;;;;;;;14.13;9.73;;;2.60;99.90;;;;;;5073498;28;20063;-71
2023/12/06 08:16:22;;;;;;;13.25;10.20;;;2.40;99.90;;;;;;5074142;28;20048;-72
2023/12/06 08:18:49;;;;;;;14.85;10.98;;;2.70;99.90;;;;;;5073656;28;20044;-71
2023/12/06 08:21:16;;;;;;;20.65;11.88;;;2.40;99.90;;;;;;5073268;28;20499;-72
2023/12/06 08:23:42;;;;;;;20.48;11.82;;;2.40;99.90;;;;;;5071588;28;20097;-72
2023/12/06 08:26:10;;;;;;;15.23;10.20;;;2.40;99.90;;;;;;5073640;28;20052;-72
2023/12/06 08:28:39;;;;;;;15.68;9.73;;;2.50;99.90;;;;;;5073228;28;20047;-72
2023/12/06 08:31:08;;;;;;;12.70;9.70;;;2.50;99.90;;;;;;5073654;28;20545;-72
2023/12/06 08:33:35;;;;;;;13.88;9.95;;;2.90;99.90;;;;;;5073711;28;20051;-72
2023/12/06 08:36:02;;;;;;;14.95;9.48;;;2.60;99.90;;;;;;5073390;28;20098;-72
2023/12/06 08:38:29;;;;;;;15.35;10.35;;;2.70;99.90;;;;;;5073445;28;20094;-72
2023/12/06 08:40:56;;;;;;;12.90;9.88;;;2.30;99.90;;;;;;5073894;28;20109;-73
2023/12/06 08:43:23;;;;;;;12.15;10.05;;;2.70;99.90;;;;;;5072786;28;20048;-72
2023/12/06 08:45:51;;;;;;;14.15;10.88;;;2.70;99.90;;;;;;5073863;28;20047;-73
2023/12/06 08:48:18;;;;;;;16.80;9.52;;;2.60;99.90;;;;;;5071748;28;20066;-73
2023/12/06 08:50:47;;;;;;;14.60;9.95;;;2.60;99.90;;;;;;5073242;28;20048;-71
2023/12/06 08:53:13;;;;;;;15.68;11.25;;;2.60;99.90;;;;;;5071999;28;20123;-71
2023/12/06 08:55:41;;;;;;;12.52;9.32;;;2.70;99.90;;;;;;5073705;28;20381;-71
2023/12/06 08:58:08;;;;;;;13.30;10.48;;;2.70;99.90;;;;;;5072993;28;20046;-71
2023/12/06 09:00:35;;;;;;;14.60;9.98;;;2.70;99.90;;;;;;5073661;28;20181;-72
2023/12/06 09:03:04;;;;;;;13.95;9.88;;;2.70;99.90;;;;;;5072960;28;20109;-71
2023/12/06 09:05:31;;;;;;;11.65;8.65;;;2.70;99.90;;;;;;5073837;28;20055;-72
2023/12/06 09:07:58;;;;;;;11.73;8.88;;;2.70;99.90;;;;;;5073477;28;20056;-72
2023/12/06 09:10:25;;;;;;;12.38;9.20;;;2.70;99.90;;;;;;5073336;28;20081;-71
2023/12/06 09:12:52;;;;;;;11.93;8.43;;;2.70;99.90;;;;;;5073558;28;20052;-71
2023/12/06 09:15:19;;;;;;;10.77;7.97;;;2.80;99.90;;;;;;5073376;28;20044;-71
2023/12/06 09:17:46;;;;;;;9.70;7.45;;;2.80;99.90;;;;;;5072345;28;20127;-72
2023/12/06 09:20:15;;;;;;;10.75;7.57;;;2.90;99.90;;;;;;5073475;28;20055;-72
2023/12/06 09:22:42;;;;;;;12.35;8.60;;;2.80;99.90;;;;;;5073156;28;20097;-71
2023/12/06 09:25:09;;;;;;;13.25;10.05;;;2.80;99.90;;;;;;5072890;28;20549;-72
2023/12/06 09:27:36;;;;;;;14.27;10.10;;;3.10;99.90;;;;;;5073404;28;20113;-71
2023/12/06 09:30:04;;;;;;;11.40;8.02;;;2.90;99.90;;;;;;5073412;28;20181;-71
2023/12/06 09:32:31;;;;;;;10.68;8.02;;;2.70;99.90;;;;;;5072752;28;20047;-72
2023/12/06 09:34:59;;;;;;;8.88;7.13;;;2.70;99.90;;;;;;5073223;28;20059;-71
2023/12/06 09:37:27;;;;;;;10.05;7.82;;;2.90;99.90;;;;;;5073250;28;20276;-73
2023/12/06 09:39:54;;;;;;;10.25;8.43;;;2.70;99.90;;;;;;5072698;28;20082;-73
2023/12/06 09:42:24;;;;;;;14.63;8.43;;;2.70;99.90;;;;;;5073401;28;20048;-73
2023/12/06 09:44:51;;;;;;;13.65;9.80;;;2.80;99.90;;;;;;5073011;28;20573;-72
2023/12/06 09:47:19;;;;;;;12.50;9.77;;;2.80;99.90;;;;;;5072838;28;20086;-73
2023/12/06 09:49:47;;;;;;;15.48;9.50;;;2.90;99.90;;;;;;5073254;28;20048;-73
2023/12/06 09:52:21;;;;;;;12.35;8.38;;;2.90;99.90;;;;;;5072470;28;20139;-71
2023/12/06 09:54:50;;;;;;;17.65;8.75;;;3.00;99.90;;;;;;5073612;28;20044;-70
2023/12/06 09:57:17;;;;;;;12.48;7.75;;;3.00;99.90;;;;;;5076697;28;20541;-71
2023/12/06 09:59:45;;;;;;;11.80;9.23;;;3.00;99.90;;;;;;5076287;28;20059;-72
2023/12/06 10:02:11;;;;;;;13.52;9.50;;;3.00;99.90;;;;;;5076662;28;20056;-72
2023/12/06 10:04:38;;;;;;;15.80;8.90;;;3.10;99.90;;;;;;5076674;28;20052;-72
2023/12/06 10:07:05;;;;;;;12.55;10.38;;;3.00;99.90;;;;;;5075946;28;20400;-72
2023/12/06 10:09:32;;;;;;;15.43;10.80;;;3.00;99.90;;;;;;5074402;28;20036;-73
2023/12/06 10:12:11;;;;;;;13.85;10.00;;;3.00;99.90;;;;;;5076351;28;20060;-73
2023/12/06 10:14:38;;;;;;;14.05;8.93;;;3.00;99.90;;;;;;5075900;28;20052;-72
2023/12/06 10:17:05;;;;;;;17.20;9.98;;;3.00;99.90;;;;;;5076254;28;20447;-71
2023/12/06 10:19:32;;;;;;;15.80;9.80;;;3.00;99.90;;;;;;5076098;28;20055;-72
2023/12/06 10:22:01;;;;;;;12.63;8.27;;;3.00;99.90;;;;;;5075667;28;20511;-72
2023/12/06 10:24:29;;;;;;;16.13;8.35;;;2.90;99.90;;;;;;5076515;28;20040;-72
2023/12/06 10:27:03;;;;;;;11.20;8.77;;;3.00;99.90;;;;;;5076225;28;20487;-72
2023/12/06 10:29:32;;;;;;;10.55;8.10;;;3.00;99.90;;;;;;5075560;28;21282;-71
2023/12/06 10:31:59;;;;;;;9.85;8.35;;;3.00;99.90;;;;;;5076292;28;20052;-70
2023/12/06 10:34:29;;;;;;;10.10;8.40;;;3.00;99.90;;;;;;5075397;28;20067;-72
2023/12/06 10:36:56;;;;;;;12.45;8.55;;;3.00;99.90;;;;;;5076211;28;20078;-71
2023/12/06 10:39:26;;;;;;;10.57;8.10;;;3.10;99.90;;;;;;5075834;28;20071;-72
2023/12/06 10:41:55;;;;;;;13.60;8.18;;;3.10;99.90;;;;;;5075304;28;20491;-72
2023/12/06 10:44:22;;;;;;;12.32;8.18;;;3.10;99.90;;;;;;5075962;28;20454;-72
2023/12/06 10:46:51;;;;;;;10.77;8.35;;;3.10;99.90;;;;;;5075954;28;20097;-72
2023/12/06 10:49:18;;;;;;;17.67;9.23;;;3.30;99.90;;;;;;5075450;28;20083;-72
2023/12/06 10:51:45;;;;;;;14.02;9.82;;;3.20;99.90;;;;;;5075841;28;20101;-72
2023/12/06 10:54:14;;;;;;;12.30;8.93;;;3.20;99.90;;;;;;5075784;28;20094;-72
2023/12/06 10:56:43;;;;;;;12.23;8.00;;;3.30;99.90;;;;;;5075419;28;20044;-72
2023/12/06 10:59:11;;;;;;;10.50;8.10;;;3.30;99.90;;;;;;5075611;28;20044;-72
2023/12/06 11:01:39;;;;;;;13.18;8.60;;;3.30;99.90;;;;;;5075795;28;20048;-71
2023/12/06 11:04:09;;;;;;;14.38;10.43;;;3.30;99.90;;;;;;5075069;28;20105;-72
2023/12/06 11:06:44;;;;;;;12.77;10.70;;;3.30;99.90;;;;;;5073216;28;20044;-71
2023/12/06 11:09:25;;;;;;;13.48;9.65;;;3.30;99.90;;;;;;5073570;28;20310;-70
2023/12/06 11:12:05;;;;;;;13.63;9.05;;;3.30;99.90;;;;;;5075051;28;20048;-72
2023/12/06 11:14:58;;;;;;;16.13;9.90;;;3.30;99.90;;;;;;5075527;28;20139;-71
2023/12/06 11:17:38;;;;;;;12.68;9.25;;;3.30;99.90;;;;;;5074696;28;20109;-72
2023/12/06 11:20:09;;;;;;;12.67;9.63;;;3.40;99.90;;;;;;5073184;28;20081;-72
2023/12/06 11:22:38;;;;;;;14.43;9.93;;;3.40;99.90;;;;;;5075312;28;20698;-72
2023/12/06 11:25:05;;;;;;;10.40;8.60;;;3.50;99.90;;;;;;5074702;28;20056;-72
2023/12/06 11:27:32;;;;;;;13.45;8.13;;;3.50;99.90;;;;;;5075404;28;20095;-71
2023/12/06 11:30:00;;;;;;;12.55;8.02;;;3.50;99.90;;;;;;5075096;28;20109;-71
2023/12/06 11:32:41;;;;;;;14.07;7.47;;;3.50;99.90;;;;;;5072771;28;20064;-72
2023/12/06 11:35:10;;;;;;;9.43;6.95;;;3.60;99.90;;;;;;5075126;28;20056;-72
2023/12/06 11:37:37;;;;;;;8.85;6.93;;;3.60;99.90;;;;;;5074774;28;20055;-72
2023/12/06 11:40:18;;;;;;;10.27;6.95;;;4.60;99.90;;;;;;5092364;28;20127;-71
2023/12/06 11:42:54;;;;;;;12.07;7.97;;;3.50;99.90;;;;;;5075299;28;20078;-71
2023/12/06 11:45:28;;;;;;;8.90;6.78;;;3.50;99.90;;;;;;5075640;28;20078;-73
2023/12/06 11:47:55;;;;;;;10.38;8.20;;;3.60;99.90;;;;;;5073060;28;20052;-73
2023/12/06 11:50:24;;;;;;;10.75;8.27;;;3.60;99.90;;;;;;5075080;28;20044;-72
2023/12/06 11:52:53;;;;;;;15.60;8.63;;;3.50;99.90;;;;;;5074325;28;20127;-73
2023/12/06 11:55:21;;;;;;;9.93;7.13;;;3.50;99.90;;;;;;5074765;28;20052;-72
2023/12/06 11:58:01;;;;;;;11.73;8.45;;;3.50;99.90;;;;;;5074327;28;20070;-72
2023/12/06 12:00:30;;;;;;;15.18;8.80;;;3.60;99.90;;;;;;5073879;28;20499;-72
2023/12/06 12:02:59;;;;;;;8.63;6.90;;;3.60;99.90;;;;;;5074098;28;20131;-72
2023/12/06 12:05:28;;;;;;;11.82;7.63;;;3.60;99.90;;;;;;5074318;28;20127;-72
2023/12/06 12:07:55;;;;;;;9.77;7.25;;;3.60;99.90;;;;;;5073708;28;20086;-71
2023/12/06 12:10:22;;;;;;;10.02;6.90;;;3.70;99.90;;;;;;5074146;28;20062;-72
2023/12/06 12:12:49;;;;;;;9.50;7.38;;;3.70;99.90;;;;;;5074378;28;20051;-71
2023/12/06 12:15:17;;;;;;;7.80;6.43;;;3.70;99.90;;;;;;5073795;28;20044;-71
2023/12/06 12:17:45;;;;;;;9.50;7.30;;;3.70;99.90;;;;;;5073302;28;20468;-71
2023/12/06 12:20:13;;;;;;;13.18;7.43;;;3.70;99.90;;;;;;5073423;28;20044;-73
2023/12/06 12:22:49;;;;;;;9.60;7.50;;;3.80;99.90;;;;;;5074139;28;20088;-73
2023/12/06 12:25:16;;;;;;;12.50;8.55;;;3.80;99.90;;;;;;5073939;28;20044;-72
2023/12/06 12:27:44;;;;;;;11.68;8.13;;;3.80;99.90;;;;;;5073590;28;20065;-73
2023/12/06 12:30:12;;;;;;;12.02;7.93;;;3.80;99.90;;;;;;5073974;28;20089;-72
2023/12/06 12:32:42;;;;;;;10.68;7.45;;;3.80;99.90;;;;;;5074264;28;20563;-72
2023/12/06 12:35:10;;;;;;;11.05;7.93;;;3.70;99.90;;;;;;5071732;28;20131;-71
2023/12/06 12:37:38;;;;;;;8.82;6.82;;;3.70;99.90;;;;;;5074022;28;20056;-71
2023/12/06 12:40:08;;;;;;;8.65;5.85;;;3.60;99.90;;;;;;5073805;28;20132;-72
2023/12/06 12:42:39;;;;;;;9.18;5.72;;;3.60;99.90;;;;;;5071433;28;20105;-72